sensor_id;sensor_type;location;lat;lon;timestamp;temperature;humidity
12254;DHT22;6189;52.526;13.390;2023-07-02T00:00:26;21.10;99.90
12254;DHT22;6189;52.526;13.390;2023-07-02T00:03:11;21.30;99.90
12254;DHT22;6189;52.526;13.390;2023-07-02T00:05:56;21.10;99.90
12254;DHT22;6189;52.526;13.390;2023-07-02T00:08:42;21.20;99.90
12254;DHT22;6189;52.526;13.390;2023-07-02T00:11:27;21.10;99.90
12254;DHT22;6189;52.526;13.390;2023-07-02T00:14:12;21.20;99.90
12254;DHT22;6189;52.526;13.390;2023-07-02T00:17:00;21.20;99.90
12254;DHT22;6189;52.526;13.390;2023-07-02T00:19:45;21.30;99.90
12254;DHT22;6189;52.526;13.390;2023-07-02T00:22:30;21.30;99.90
12254;DHT22;6189;52.526;13.390;2023-07-02T00:25:20;21.30;99.90
12254;DHT22;6189;52.526;13.390;2023-07-02T00:28:05;21.00;99.90
12254;DHT22;6189;52.526;13.390;2023-07-02T00:30:50;21.10;99.90
12254;DHT22;6189;52.526;13.390;2023-07-02T00:33:37;21.20;99.90
12254;DHT22;6189;52.526;13.390;2023-07-02T00:36:22;21.40;99.90
12254;DHT22;6189;52.526;13.390;2023-07-02T00:39:07;21.30;99.90
12254;DHT22;6189;52.526;13.390;2023-07-02T00:41:53;21.20;99.90
12254;DHT22;6189;52.526;13.390;2023-07-02T00:44:38;21.20;99.90
12254;DHT22;6189;52.526;13.390;2023-07-02T00:47:24;21.10;99.90
12254;DHT22;6189;52.526;13.390;2023-07-02T00:50:11;21.20;99.90
12254;DHT22;6189;52.526;13.390;2023-07-02T00:52:57;20.90;99.90
12254;DHT22;6189;52.526;13.390;2023-07-02T00:55:42;20.80;99.90
12254;DHT22;6189;52.526;13.390;2023-07-02T00:58:28;20.80;99.90
12254;DHT22;6189;52.526;13.390;2023-07-02T01:01:13;21.00;99.90
12254;DHT22;6189;52.526;13.390;2023-07-02T01:03:59;20.90;99.90
12254;DHT22;6189;52.526;13.390;2023-07-02T01:06:46;20.90;99.90
12254;DHT22;6189;52.526;13.390;2023-07-02T01:09:31;20.80;99.90
12254;DHT22;6189;52.526;13.390;2023-07-02T01:12:17;20.70;99.90
12254;DHT22;6189;52.526;13.390;2023-07-02T01:15:03;20.50;99.90
12254;DHT22;6189;52.526;13.390;2023-07-02T01:17:49;20.50;99.90
12254;DHT22;6189;52.526;13.390;2023-07-02T01:20:38;20.30;99.90
12254;DHT22;6189;52.526;13.390;2023-07-02T01:23:23;20.30;99.90
12254;DHT22;6189;52.526;13.390;2023-07-02T01:26:09;20.10;99.90
12254;DHT22;6189;52.526;13.390;2023-07-02T01:28:54;20.30;99.90
12254;DHT22;6189;52.526;13.390;2023-07-02T01:31:39;20.20;99.90
12254;DHT22;6189;52.526;13.390;2023-07-02T01:34:24;20.40;99.90
12254;DHT22;6189;52.526;13.390;2023-07-02T01:37:11;20.60;99.90
12254;DHT22;6189;52.526;13.390;2023-07-02T01:39:56;20.50;99.90
12254;DHT22;6189;52.526;13.390;2023-07-02T01:42:41;20.40;99.90
12254;DHT22;6189;52.526;13.390;2023-07-02T01:45:26;20.60;99.90
12254;DHT22;6189;52.526;13.390;2023-07-02T01:48:12;20.40;99.90
12254;DHT22;6189;52.526;13.390;2023-07-02T01:50:57;20.60;99.90
12254;DHT22;6189;52.526;13.390;2023-07-02T01:53:43;20.70;99.90
12254;DHT22;6189;52.526;13.390;2023-07-02T01:56:29;20.10;99.90
12254;DHT22;6189;52.526;13.390;2023-07-02T01:59:14;19.90;99.90
12254;DHT22;6189;52.526;13.390;2023-07-02T02:02:00;20.10;99.90
12254;DHT22;6189;52.526;13.390;2023-07-02T02:04:46;20.10;99.90
12254;DHT22;6189;52.526;13.390;2023-07-02T02:07:31;20.00;99.90
12254;DHT22;6189;52.526;13.390;2023-07-02T02:10:19;20.20;99.90
12254;DHT22;6189;52.526;13.390;2023-07-02T02:13:05;19.90;99.90
12254;DHT22;6189;52.526;13.390;2023-07-02T02:15:50;20.10;99.90
12254;DHT22;6189;52.526;13.390;2023-07-02T02:18:35;20.40;99.90
12254;DHT22;6189;52.526;13.390;2023-07-02T02:21:21;20.30;99.90
12254;DHT22;6189;52.526;13.390;2023-07-02T02:24:06;20.30;99.90
12254;DHT22;6189;52.526;13.390;2023-07-02T02:26:53;20.30;99.90
12254;DHT22;6189;52.526;13.390;2023-07-02T02:29:39;20.20;99.90
12254;DHT22;6189;52.526;13.390;2023-07-02T02:32:24;19.90;99.90
12254;DHT22;6189;52.526;13.390;2023-07-02T02:35:09;19.70;99.90
12254;DHT22;6189;52.526;13.390;2023-07-02T02:37:54;19.70;99.90
12254;DHT22;6189;52.526;13.390;2023-07-02T02:40:39;19.80;99.90
12254;DHT22;6189;52.526;13.390;2023-07-02T02:43:26;20.00;99.90
12254;DHT22;6189;52.526;13.390;2023-07-02T02:46:12;19.90;99.90
12254;DHT22;6189;52.526;13.390;2023-07-02T02:48:57;19.80;99.90
12254;DHT22;6189;52.526;13.390;2023-07-02T02:51:42;19.70;99.90
12254;DHT22;6189;52.526;13.390;2023-07-02T02:54:27;19.70;99.90
12254;DHT22;6189;52.526;13.390;2023-07-02T02:57:13;19.90;99.90
12254;DHT22;6189;52.526;13.390;2023-07-02T03:00:00;20.10;99.90
12254;DHT22;6189;52.526;13.390;2023-07-02T03:02:45;20.20;99.90
12254;DHT22;6189;52.526;13.390;2023-07-02T03:05:31;20.20;99.90
12254;DHT22;6189;52.526;13.390;2023-07-02T03:08:16;20.40;99.90
12254;DHT22;6189;52.526;13.390;2023-07-02T03:11:01;20.20;99.90
12254;DHT22;6189;52.526;13.390;2023-07-02T03:13:46;20.20;99.90
12254;DHT22;6189;52.526;13.390;2023-07-02T03:16:34;20.20;99.90
12254;DHT22;6189;52.526;13.390;2023-07-02T03:19:19;20.00;99.90
12254;DHT22;6189;52.526;13.390;2023-07-02T03:22:04;20.10;99.90
12254;DHT22;6189;52.526;13.390;2023-07-02T03:24:50;20.10;99.90
12254;DHT22;6189;52.526;13.390;2023-07-02T03:27:35;20.20;99.90
12254;DHT22;6189;52.526;13.390;2023-07-02T03:30:20;20.30;99.90
12254;DHT22;6189;52.526;13.390;2023-07-02T03:33:07;20.30;99.90
12254;DHT22;6189;52.526;13.390;2023-07-02T03:35:53;20.30;99.90
12254;DHT22;6189;52.526;13.390;2023-07-02T03:38:38;20.20;99.90
12254;DHT22;6189;52.526;13.390;2023-07-02T03:41:23;20.20;99.90
12254;DHT22;6189;52.526;13.390;2023-07-02T03:44:09;20.20;99.90
12254;DHT22;6189;52.526;13.390;2023-07-02T03:46:54;20.20;99.90
12254;DHT22;6189;52.526;13.390;2023-07-02T03:49:41;20.10;99.90
12254;DHT22;6189;52.526;13.390;2023-07-02T03:52:26;20.00;99.90
12254;DHT22;6189;52.526;13.390;2023-07-02T03:55:11;20.20;99.90
12254;DHT22;6189;52.526;13.390;2023-07-02T03:57:57;19.70;99.90
12254;DHT22;6189;52.526;13.390;2023-07-02T04:00:42;19.70;99.90
12254;DHT22;6189;52.526;13.390;2023-07-02T04:03:28;20.00;99.90
12254;DHT22;6189;52.526;13.390;2023-07-02T04:06:14;20.00;99.90
12254;DHT22;6189;52.526;13.390;2023-07-02T04:09:00;19.70;99.90
12254;DHT22;6189;52.526;13.390;2023-07-02T04:11:45;19.70;99.90
12254;DHT22;6189;52.526;13.390;2023-07-02T04:14:31;19.20;99.90
12254;DHT22;6189;52.526;13.390;2023-07-02T04:17:16;19.60;99.90
12254;DHT22;6189;52.526;13.390;2023-07-02T04:20:02;19.60;99.90
12254;DHT22;6189;52.526;13.390;2023-07-02T04:22:49;19.60;99.90
12254;DHT22;6189;52.526;13.390;2023-07-02T04:25:34;19.80;99.90
12254;DHT22;6189;52.526;13.390;2023-07-02T04:28:19;19.80;99.90
12254;DHT22;6189;52.526;13.390;2023-07-02T04:31:05;19.90;99.90
12254;DHT22;6189;52.526;13.390;2023-07-02T04:33:50;20.10;99.90
12254;DHT22;6189;52.526;13.390;2023-07-02T04:36:35;19.70;99.90
12254;DHT22;6189;52.526;13.390;2023-07-02T04:39:22;20.40;99.90
12254;DHT22;6189;52.526;13.390;2023-07-02T04:42:08;19.90;99.90
12254;DHT22;6189;52.526;13.390;2023-07-02T04:44:54;19.90;99.90
12254;DHT22;6189;52.526;13.390;2023-07-02T04:47:39;19.60;99.90
12254;DHT22;6189;52.526;13.390;2023-07-02T04:50:25;19.80;99.90
12254;DHT22;6189;52.526;13.390;2023-07-02T04:53:10;19.70;99.90
12254;DHT22;6189;52.526;13.390;2023-07-02T04:55:57;19.60;99.90
12254;DHT22;6189;52.526;13.390;2023-07-02T04:58:42;19.70;99.90
12254;DHT22;6189;52.526;13.390;2023-07-02T05:01:27;20.00;99.90
12254;DHT22;6189;52.526;13.390;2023-07-02T05:04:13;20.10;99.90
12254;DHT22;6189;52.526;13.390;2023-07-02T05:06:59;19.80;99.90
12254;DHT22;6189;52.526;13.390;2023-07-02T05:09:44;19.80;99.90
12254;DHT22;6189;52.526;13.390;2023-07-02T05:12:31;20.10;99.90
12254;DHT22;6189;52.526;13.390;2023-07-02T05:15:16;20.00;99.90
12254;DHT22;6189;52.526;13.390;2023-07-02T05:18:02;19.80;99.90
12254;DHT22;6189;52.526;13.390;2023-07-02T05:20:47;20.00;99.90
12254;DHT22;6189;52.526;13.390;2023-07-02T05:23:32;20.20;99.90
12254;DHT22;6189;52.526;13.390;2023-07-02T05:26:17;20.30;99.90
12254;DHT22;6189;52.526;13.390;2023-07-02T05:29:04;20.20;99.90
12254;DHT22;6189;52.526;13.390;2023-07-02T05:31:50;20.20;99.90
12254;DHT22;6189;52.526;13.390;2023-07-02T05:34:35;20.00;99.90
12254;DHT22;6189;52.526;13.390;2023-07-02T05:37:20;19.80;99.90
12254;DHT22;6189;52.526;13.390;2023-07-02T05:40:06;19.90;99.90
12254;DHT22;6189;52.526;13.390;2023-07-02T05:42:52;19.80;99.90
12254;DHT22;6189;52.526;13.390;2023-07-02T05:45:38;19.90;99.90
12254;DHT22;6189;52.526;13.390;2023-07-02T05:48:24;19.90;99.90
12254;DHT22;6189;52.526;13.390;2023-07-02T05:51:09;19.70;99.90
12254;DHT22;6189;52.526;13.390;2023-07-02T05:53:54;20.00;99.90
12254;DHT22;6189;52.526;13.390;2023-07-02T05:56:40;20.00;99.90
12254;DHT22;6189;52.526;13.390;2023-07-02T05:59:25;19.90;99.90
12254;DHT22;6189;52.526;13.390;2023-07-02T06:02:11;20.10;99.90
12254;DHT22;6189;52.526;13.390;2023-07-02T06:04:57;20.30;99.90
12254;DHT22;6189;52.526;13.390;2023-07-02T06:07:42;20.50;99.90
12254;DHT22;6189;52.526;13.390;2023-07-02T06:10:28;20.50;99.90
12254;DHT22;6189;52.526;13.390;2023-07-02T06:13:13;20.50;99.90
12254;DHT22;6189;52.526;13.390;2023-07-02T06:15:58;20.40;99.90
12254;DHT22;6189;52.526;13.390;2023-07-02T06:18:45;20.60;99.90
12254;DHT22;6189;52.526;13.390;2023-07-02T06:21:30;20.60;99.90
12254;DHT22;6189;52.526;13.390;2023-07-02T06:24:15;20.70;99.90
12254;DHT22;6189;52.526;13.390;2023-07-02T06:27:00;20.80;99.90
12254;DHT22;6189;52.526;13.390;2023-07-02T06:29:46;20.60;99.90
12254;DHT22;6189;52.526;13.390;2023-07-02T06:32:32;20.70;99.90
12254;DHT22;6189;52.526;13.390;2023-07-02T06:35:18;20.90;99.90
12254;DHT22;6189;52.526;13.390;2023-07-02T06:38:04;20.90;99.90
12254;DHT22;6189;52.526;13.390;2023-07-02T06:40:49;20.80;99.90
12254;DHT22;6189;52.526;13.390;2023-07-02T06:43:34;20.90;99.90
12254;DHT22;6189;52.526;13.390;2023-07-02T06:46:20;21.00;99.90
12254;DHT22;6189;52.526;13.390;2023-07-02T06:49:05;21.10;99.90
12254;DHT22;6189;52.526;13.390;2023-07-02T06:51:51;21.10;99.90
12254;DHT22;6189;52.526;13.390;2023-07-02T06:54:37;20.90;99.90
12254;DHT22;6189;52.526;13.390;2023-07-02T06:57:22;20.90;99.90
12254;DHT22;6189;52.526;13.390;2023-07-02T07:00:08;20.90;99.90
12254;DHT22;6189;52.526;13.390;2023-07-02T07:02:53;21.10;99.90
12254;DHT22;6189;52.526;13.390;2023-07-02T07:05:39;21.20;99.90
12254;DHT22;6189;52.526;13.390;2023-07-02T07:08:25;21.40;99.90
12254;DHT22;6189;52.526;13.390;2023-07-02T07:11:10;21.40;99.90
12254;DHT22;6189;52.526;13.390;2023-07-02T07:13:56;21.50;99.90
12254;DHT22;6189;52.526;13.390;2023-07-02T07:16:41;21.50;99.90
12254;DHT22;6189;52.526;13.390;2023-07-02T07:19:26;21.40;99.90
12254;DHT22;6189;52.526;13.390;2023-07-02T07:22:11;21.30;99.90
12254;DHT22;6189;52.526;13.390;2023-07-02T07:24:58;21.30;99.90
12254;DHT22;6189;52.526;13.390;2023-07-02T07:27:43;21.40;99.90
12254;DHT22;6189;52.526;13.390;2023-07-02T07:30:28;21.40;99.90
12254;DHT22;6189;52.526;13.390;2023-07-02T07:33:14;21.40;99.90
12254;DHT22;6189;52.526;13.390;2023-07-02T07:35:59;21.30;99.90
12254;DHT22;6189;52.526;13.390;2023-07-02T07:38:45;21.30;99.90
12254;DHT22;6189;52.526;13.390;2023-07-02T07:41:31;21.40;99.90
12254;DHT22;6189;52.526;13.390;2023-07-02T07:44:17;21.40;99.90
12254;DHT22;6189;52.526;13.390;2023-07-02T07:47:02;21.60;99.90
12254;DHT22;6189;52.526;13.390;2023-07-02T07:49:48;21.70;99.90
12254;DHT22;6189;52.526;13.390;2023-07-02T07:52:33;21.60;99.90
12254;DHT22;6189;52.526;13.390;2023-07-02T07:55:18;21.50;99.90
12254;DHT22;6189;52.526;13.390;2023-07-02T07:58:05;21.50;99.90
12254;DHT22;6189;52.526;13.390;2023-07-02T08:00:50;21.40;99.90
12254;DHT22;6189;52.526;13.390;2023-07-02T08:03:36;21.40;99.90
12254;DHT22;6189;52.526;13.390;2023-07-02T08:06:22;21.30;99.90
12254;DHT22;6189;52.526;13.390;2023-07-02T08:09:07;21.30;99.90
12254;DHT22;6189;52.526;13.390;2023-07-02T08:11:53;21.20;99.90
12254;DHT22;6189;52.526;13.390;2023-07-02T08:14:40;21.20;99.90
12254;DHT22;6189;52.526;13.390;2023-07-02T08:17:26;21.20;99.90
12254;DHT22;6189;52.526;13.390;2023-07-02T08:20:11;21.30;99.90
12254;DHT22;6189;52.526;13.390;2023-07-02T08:22:57;21.20;99.90
12254;DHT22;6189;52.526;13.390;2023-07-02T08:25:42;21.20;99.90
12254;DHT22;6189;52.526;13.390;2023-07-02T08:28:28;21.00;99.90
12254;DHT22;6189;52.526;13.390;2023-07-02T08:31:14;21.00;99.90
12254;DHT22;6189;52.526;13.390;2023-07-02T08:34:00;21.10;99.90
12254;DHT22;6189;52.526;13.390;2023-07-02T08:36:45;21.10;99.90
12254;DHT22;6189;52.526;13.390;2023-07-02T08:39:30;21.00;99.90
12254;DHT22;6189;52.526;13.390;2023-07-02T08:42:16;21.10;99.90
12254;DHT22;6189;52.526;13.390;2023-07-02T08:45:01;21.20;99.90
12254;DHT22;6189;52.526;13.390;2023-07-02T08:47:48;21.10;99.90
12254;DHT22;6189;52.526;13.390;2023-07-02T08:50:34;21.10;99.90
12254;DHT22;6189;52.526;13.390;2023-07-02T08:53:20;21.10;99.90
12254;DHT22;6189;52.526;13.390;2023-07-02T08:56:09;21.20;99.90
12254;DHT22;6189;52.526;13.390;2023-07-02T08:58:54;20.90;99.90
12254;DHT22;6189;52.526;13.390;2023-07-02T09:01:46;21.10;99.90
12254;DHT22;6189;52.526;13.390;2023-07-02T09:04:33;21.10;99.90
12254;DHT22;6189;52.526;13.390;2023-07-02T09:07:18;21.20;99.90
12254;DHT22;6189;52.526;13.390;2023-07-02T09:10:04;21.20;99.90
12254;DHT22;6189;52.526;13.390;2023-07-02T09:12:49;21.30;99.90
12254;DHT22;6189;52.526;13.390;2023-07-02T09:15:34;21.30;99.90
12254;DHT22;6189;52.526;13.390;2023-07-02T09:18:20;21.40;99.90
12254;DHT22;6189;52.526;13.390;2023-07-02T09:21:08;21.40;99.90
12254;DHT22;6189;52.526;13.390;2023-07-02T09:23:54;21.50;99.90
12254;DHT22;6189;52.526;13.390;2023-07-02T09:26:41;21.50;99.90
12254;DHT22;6189;52.526;13.390;2023-07-02T09:29:27;21.50;99.90
12254;DHT22;6189;52.526;13.390;2023-07-02T09:32:13;21.50;99.90
12254;DHT22;6189;52.526;13.390;2023-07-02T09:34:58;21.50;99.90
12254;DHT22;6189;52.526;13.390;2023-07-02T09:37:45;21.50;99.90
12254;DHT22;6189;52.526;13.390;2023-07-02T09:40:33;21.60;99.90
12254;DHT22;6189;52.526;13.390;2023-07-02T09:46:42;22.00;99.90
12254;DHT22;6189;52.526;13.390;2023-07-02T09:49:31;22.30;99.70
12254;DHT22;6189;52.526;13.390;2023-07-02T09:52:17;22.40;99.10
12254;DHT22;6189;52.526;13.390;2023-07-02T09:55:06;22.70;98.50
12254;DHT22;6189;52.526;13.390;2023-07-02T09:57:51;22.70;96.40
12254;DHT22;6189;52.526;13.390;2023-07-02T10:00:37;22.90;96.00
12254;DHT22;6189;52.526;13.390;2023-07-02T10:03:31;22.60;95.90
12254;DHT22;6189;52.526;13.390;2023-07-02T10:06:17;22.70;96.10
12254;DHT22;6189;52.526;13.390;2023-07-02T10:09:02;22.80;96.20
12254;DHT22;6189;52.526;13.390;2023-07-02T10:11:49;23.20;95.30
12254;DHT22;6189;52.526;13.390;2023-07-02T10:14:41;23.50;95.90
12254;DHT22;6189;52.526;13.390;2023-07-02T10:17:27;23.60;95.90
12254;DHT22;6189;52.526;13.390;2023-07-02T10:20:14;23.70;94.40
12254;DHT22;6189;52.526;13.390;2023-07-02T10:22:59;23.80;94.80
12254;DHT22;6189;52.526;13.390;2023-07-02T10:25:46;23.90;94.60
12254;DHT22;6189;52.526;13.390;2023-07-02T10:28:32;23.80;93.70
12254;DHT22;6189;52.526;13.390;2023-07-02T10:31:19;23.70;94.20
12254;DHT22;6189;52.526;13.390;2023-07-02T10:34:04;23.80;93.80
12254;DHT22;6189;52.526;13.390;2023-07-02T10:36:53;23.40;94.60
12254;DHT22;6189;52.526;13.390;2023-07-02T10:39:39;23.30;94.20
12254;DHT22;6189;52.526;13.390;2023-07-02T10:42:25;23.40;94.50
12254;DHT22;6189;52.526;13.390;2023-07-02T10:45:11;23.70;94.50
12254;DHT22;6189;52.526;13.390;2023-07-02T10:47:57;23.90;94.60
12254;DHT22;6189;52.526;13.390;2023-07-02T10:50:43;23.80;92.80
12254;DHT22;6189;52.526;13.390;2023-07-02T10:53:28;23.80;93.20
12254;DHT22;6189;52.526;13.390;2023-07-02T10:56:15;23.30;93.90
12254;DHT22;6189;52.526;13.390;2023-07-02T10:59:01;23.50;93.80
12254;DHT22;6189;52.526;13.390;2023-07-02T11:01:50;23.50;93.10
12254;DHT22;6189;52.526;13.390;2023-07-02T11:04:35;23.00;92.60
12254;DHT22;6189;52.526;13.390;2023-07-02T11:07:22;23.00;93.70
12254;DHT22;6189;52.526;13.390;2023-07-02T11:10:08;22.80;93.30
12254;DHT22;6189;52.526;13.390;2023-07-02T11:12:54;22.20;94.10
12254;DHT22;6189;52.526;13.390;2023-07-02T11:15:39;21.70;94.50
12254;DHT22;6189;52.526;13.390;2023-07-02T11:18:30;21.30;95.30
12254;DHT22;6189;52.526;13.390;2023-07-02T11:21:15;21.70;95.90
12254;DHT22;6189;52.526;13.390;2023-07-02T11:24:01;22.00;95.90
12254;DHT22;6189;52.526;13.390;2023-07-02T11:26:47;22.40;95.40
12254;DHT22;6189;52.526;13.390;2023-07-02T11:29:42;23.00;94.40
12254;DHT22;6189;52.526;13.390;2023-07-02T11:32:27;23.50;93.50
12254;DHT22;6189;52.526;13.390;2023-07-02T11:35:14;23.80;91.90
12254;DHT22;6189;52.526;13.390;2023-07-02T11:37:59;23.70;90.80
12254;DHT22;6189;52.526;13.390;2023-07-02T11:40:44;23.50;90.00
12254;DHT22;6189;52.526;13.390;2023-07-02T11:43:32;23.50;86.60
12254;DHT22;6189;52.526;13.390;2023-07-02T11:46:17;23.60;88.30
12254;DHT22;6189;52.526;13.390;2023-07-02T11:49:03;23.90;84.70
12254;DHT22;6189;52.526;13.390;2023-07-02T11:51:53;24.10;85.00
12254;DHT22;6189;52.526;13.390;2023-07-02T11:54:38;24.50;85.50
12254;DHT22;6189;52.526;13.390;2023-07-02T11:57:23;24.70;81.00
12254;DHT22;6189;52.526;13.390;2023-07-02T12:00:09;24.60;77.50
12254;DHT22;6189;52.526;13.390;2023-07-02T12:02:54;24.50;77.00
12254;DHT22;6189;52.526;13.390;2023-07-02T12:05:40;24.20;76.20
12254;DHT22;6189;52.526;13.390;2023-07-02T12:08:26;24.20;75.80
12254;DHT22;6189;52.526;13.390;2023-07-02T12:11:11;24.30;76.40
12254;DHT22;6189;52.526;13.390;2023-07-02T12:13:57;24.40;75.80
12254;DHT22;6189;52.526;13.390;2023-07-02T12:16:42;24.40;77.50
12254;DHT22;6189;52.526;13.390;2023-07-02T12:19:27;24.30;76.40
12254;DHT22;6189;52.526;13.390;2023-07-02T12:22:13;24.70;76.40
12254;DHT22;6189;52.526;13.390;2023-07-02T12:25:01;25.10;75.60
12254;DHT22;6189;52.526;13.390;2023-07-02T12:27:47;25.20;73.60
12254;DHT22;6189;52.526;13.390;2023-07-02T12:30:32;25.30;74.90
12254;DHT22;6189;52.526;13.390;2023-07-02T12:33:18;25.50;72.20
12254;DHT22;6189;52.526;13.390;2023-07-02T12:36:03;25.70;73.70
12254;DHT22;6189;52.526;13.390;2023-07-02T12:38:49;25.60;74.10
12254;DHT22;6189;52.526;13.390;2023-07-02T12:41:37;25.20;72.50
12254;DHT22;6189;52.526;13.390;2023-07-02T12:44:23;25.30;74.10
12254;DHT22;6189;52.526;13.390;2023-07-02T12:47:08;25.50;72.20
12254;DHT22;6189;52.526;13.390;2023-07-02T12:49:53;25.70;74.20
12254;DHT22;6189;52.526;13.390;2023-07-02T12:52:39;25.90;67.40
12254;DHT22;6189;52.526;13.390;2023-07-02T12:55:24;25.90;69.60
12254;DHT22;6189;52.526;13.390;2023-07-02T12:58:11;25.80;68.70
12254;DHT22;6189;52.526;13.390;2023-07-02T13:00:56;25.50;68.10
12254;DHT22;6189;52.526;13.390;2023-07-02T13:03:44;25.50;70.60
12254;DHT22;6189;52.526;13.390;2023-07-02T13:06:30;25.40;70.00
12254;DHT22;6189;52.526;13.390;2023-07-02T13:09:18;25.00;68.40
12254;DHT22;6189;52.526;13.390;2023-07-02T13:12:03;24.50;70.90
12254;DHT22;6189;52.526;13.390;2023-07-02T13:14:50;24.60;70.20
12254;DHT22;6189;52.526;13.390;2023-07-02T13:17:35;24.80;69.00
12254;DHT22;6189;52.526;13.390;2023-07-02T13:20:20;24.90;65.90
12254;DHT22;6189;52.526;13.390;2023-07-02T13:23:05;24.50;64.80
12254;DHT22;6189;52.526;13.390;2023-07-02T13:25:51;24.60;65.20
12254;DHT22;6189;52.526;13.390;2023-07-02T13:28:36;24.60;63.20
12254;DHT22;6189;52.526;13.390;2023-07-02T13:31:23;24.30;67.50
12254;DHT22;6189;52.526;13.390;2023-07-02T13:34:09;24.40;66.80
12254;DHT22;6189;52.526;13.390;2023-07-02T13:36:54;24.70;65.60
12254;DHT22;6189;52.526;13.390;2023-07-02T13:39:39;24.40;65.80
12254;DHT22;6189;52.526;13.390;2023-07-02T13:42:25;24.60;66.00
12254;DHT22;6189;52.526;13.390;2023-07-02T13:45:10;24.50;67.40
12254;DHT22;6189;52.526;13.390;2023-07-02T13:47:57;25.00;68.10
12254;DHT22;6189;52.526;13.390;2023-07-02T13:50:43;25.30;66.10
12254;DHT22;6189;52.526;13.390;2023-07-02T13:53:28;25.40;67.60
12254;DHT22;6189;52.526;13.390;2023-07-02T13:56:13;25.40;66.40
12254;DHT22;6189;52.526;13.390;2023-07-02T13:59:04;24.40;65.10
12254;DHT22;6189;52.526;13.390;2023-07-02T14:01:50;24.50;65.50
12254;DHT22;6189;52.526;13.390;2023-07-02T14:04:35;25.00;65.90
12254;DHT22;6189;52.526;13.390;2023-07-02T14:07:21;25.40;65.20
12254;DHT22;6189;52.526;13.390;2023-07-02T14:10:07;25.60;65.20
12254;DHT22;6189;52.526;13.390;2023-07-02T14:12:52;25.20;63.40
12254;DHT22;6189;52.526;13.390;2023-07-02T14:15:39;24.90;66.50
12254;DHT22;6189;52.526;13.390;2023-07-02T14:18:24;24.70;64.50
12254;DHT22;6189;52.526;13.390;2023-07-02T14:21:10;24.60;67.60
12254;DHT22;6189;52.526;13.390;2023-07-02T14:23:55;24.70;68.40
12254;DHT22;6189;52.526;13.390;2023-07-02T14:26:40;24.40;66.80
12254;DHT22;6189;52.526;13.390;2023-07-02T14:29:46;24.40;69.50
12254;DHT22;6189;52.526;13.390;2023-07-02T14:32:33;24.50;70.20
12254;DHT22;6189;52.526;13.390;2023-07-02T14:35:20;24.40;64.10
12254;DHT22;6189;52.526;13.390;2023-07-02T14:41:31;24.40;67.80
12254;DHT22;6189;52.526;13.390;2023-07-02T14:44:19;24.40;63.90
12254;DHT22;6189;52.526;13.390;2023-07-02T14:47:05;24.10;64.60
12254;DHT22;6189;52.526;13.390;2023-07-02T14:49:51;24.20;62.60
12254;DHT22;6189;52.526;13.390;2023-07-02T14:52:37;23.80;64.40
12254;DHT22;6189;52.526;13.390;2023-07-02T14:55:22;24.10;66.80
12254;DHT22;6189;52.526;13.390;2023-07-02T14:58:08;24.20;63.80
12254;DHT22;6189;52.526;13.390;2023-07-02T15:00:55;24.10;66.10
12254;DHT22;6189;52.526;13.390;2023-07-02T15:03:40;24.10;69.40
12254;DHT22;6189;52.526;13.390;2023-07-02T15:06:27;24.20;67.60
12254;DHT22;6189;52.526;13.390;2023-07-02T15:09:12;24.20;66.60
12254;DHT22;6189;52.526;13.390;2023-07-02T15:12:00;23.80;63.00
12254;DHT22;6189;52.526;13.390;2023-07-02T15:14:45;23.90;69.30
12254;DHT22;6189;52.526;13.390;2023-07-02T15:17:30;24.00;64.30
12254;DHT22;6189;52.526;13.390;2023-07-02T15:20:16;23.90;64.90
12254;DHT22;6189;52.526;13.390;2023-07-02T15:23:02;23.90;67.40
12254;DHT22;6189;52.526;13.390;2023-07-02T15:25:52;23.80;64.10
12254;DHT22;6189;52.526;13.390;2023-07-02T15:28:37;23.80;67.50
12254;DHT22;6189;52.526;13.390;2023-07-02T15:31:23;23.80;66.70
12254;DHT22;6189;52.526;13.390;2023-07-02T15:34:08;23.90;66.00
12254;DHT22;6189;52.526;13.390;2023-07-02T15:36:53;23.90;68.40
12254;DHT22;6189;52.526;13.390;2023-07-02T15:39:39;24.00;66.00
12254;DHT22;6189;52.526;13.390;2023-07-02T15:42:25;24.10;66.60
12254;DHT22;6189;52.526;13.390;2023-07-02T15:45:13;24.10;64.90
12254;DHT22;6189;52.526;13.390;2023-07-02T15:47:59;23.70;64.10
12254;DHT22;6189;52.526;13.390;2023-07-02T15:50:44;23.50;64.70
12254;DHT22;6189;52.526;13.390;2023-07-02T15:53:30;23.10;65.50
12254;DHT22;6189;52.526;13.390;2023-07-02T15:56:16;23.30;67.50
12254;DHT22;6189;52.526;13.390;2023-07-02T15:59:02;23.20;64.80
12254;DHT22;6189;52.526;13.390;2023-07-02T16:01:49;23.20;65.80
12254;DHT22;6189;52.526;13.390;2023-07-02T16:04:34;23.40;65.60
12254;DHT22;6189;52.526;13.390;2023-07-02T16:07:20;23.50;66.70
12254;DHT22;6189;52.526;13.390;2023-07-02T16:10:05;23.70;66.40
12254;DHT22;6189;52.526;13.390;2023-07-02T16:12:52;24.00;66.10
12254;DHT22;6189;52.526;13.390;2023-07-02T16:15:38;23.90;64.20
12254;DHT22;6189;52.526;13.390;2023-07-02T16:18:23;23.80;64.20
12254;DHT22;6189;52.526;13.390;2023-07-02T16:21:09;23.70;65.80
12254;DHT22;6189;52.526;13.390;2023-07-02T16:23:54;23.70;66.40
12254;DHT22;6189;52.526;13.390;2023-07-02T16:26:39;23.70;66.80
12254;DHT22;6189;52.526;13.390;2023-07-02T16:29:27;23.40;64.70
12254;DHT22;6189;52.526;13.390;2023-07-02T16:32:14;23.30;65.70
12254;DHT22;6189;52.526;13.390;2023-07-02T16:35:01;23.40;65.70
12254;DHT22;6189;52.526;13.390;2023-07-02T16:37:47;23.50;67.10
12254;DHT22;6189;52.526;13.390;2023-07-02T16:40:33;23.50;65.10
12254;DHT22;6189;52.526;13.390;2023-07-02T16:43:18;23.70;66.00
12254;DHT22;6189;52.526;13.390;2023-07-02T16:46:05;23.40;64.50
12254;DHT22;6189;52.526;13.390;2023-07-02T16:48:50;23.30;65.90
12254;DHT22;6189;52.526;13.390;2023-07-02T16:51:36;23.30;65.40
12254;DHT22;6189;52.526;13.390;2023-07-02T16:54:24;23.30;65.90
12254;DHT22;6189;52.526;13.390;2023-07-02T16:57:10;23.10;66.60
12254;DHT22;6189;52.526;13.390;2023-07-02T16:59:55;23.30;66.40
12254;DHT22;6189;52.526;13.390;2023-07-02T17:02:42;23.20;65.20
12254;DHT22;6189;52.526;13.390;2023-07-02T17:05:27;23.00;67.00
12254;DHT22;6189;52.526;13.390;2023-07-02T17:08:15;23.00;67.10
12254;DHT22;6189;52.526;13.390;2023-07-02T17:11:00;23.10;67.40
12254;DHT22;6189;52.526;13.390;2023-07-02T17:13:45;23.30;65.90
12254;DHT22;6189;52.526;13.390;2023-07-02T17:16:31;23.60;64.90
12254;DHT22;6189;52.526;13.390;2023-07-02T17:19:18;23.70;64.90
12254;DHT22;6189;52.526;13.390;2023-07-02T17:22:04;23.70;66.40
12254;DHT22;6189;52.526;13.390;2023-07-02T17:24:50;23.70;66.10
12254;DHT22;6189;52.526;13.390;2023-07-02T17:27:36;23.30;65.30
12254;DHT22;6189;52.526;13.390;2023-07-02T17:30:22;23.10;64.00
12254;DHT22;6189;52.526;13.390;2023-07-02T17:33:07;22.80;65.40